sensor_id;sensor_type;location;lat;lon;timestamp;P1;durP1;ratioP1;P2;durP2;ratioP2
39772;SDS011;25451;51.960;6.250;2024-02-23T00:01:57;0.63;;;0.43;;
39772;SDS011;25451;51.960;6.250;2024-02-23T00:04:23;0.40;;;0.30;;
39772;SDS011;25451;51.960;6.250;2024-02-23T00:06:48;1.67;;;0.47;;
39772;SDS011;25451;51.960;6.250;2024-02-23T00:09:13;1.23;;;0.50;;
39772;SDS011;25451;51.960;6.250;2024-02-23T00:11:39;0.57;;;0.40;;
39772;SDS011;25451;51.960;6.250;2024-02-23T00:14:09;1.10;;;0.50;;
39772;SDS011;25451;51.960;6.250;2024-02-23T00:16:37;1.23;;;0.50;;
39772;SDS011;25451;51.960;6.250;2024-02-23T00:19:04;1.10;;;0.60;;
39772;SDS011;25451;51.960;6.250;2024-02-23T00:21:30;1.73;;;0.70;;
39772;SDS011;25451;51.960;6.250;2024-02-23T00:23:55;1.80;;;1.10;;
39772;SDS011;25451;51.960;6.250;2024-02-23T00:26:20;2.37;;;0.60;;
39772;SDS011;25451;51.960;6.250;2024-02-23T00:28:45;2.43;;;0.70;;
39772;SDS011;25451;51.960;6.250;2024-02-23T00:31:11;2.67;;;0.67;;
39772;SDS011;25451;51.960;6.250;2024-02-23T00:33:36;4.00;;;0.63;;
39772;SDS011;25451;51.960;6.250;2024-02-23T00:36:02;1.33;;;0.50;;
39772;SDS011;25451;51.960;6.250;2024-02-23T00:38:28;2.40;;;0.53;;
39772;SDS011;25451;51.960;6.250;2024-02-23T00:40:53;2.10;;;0.70;;
39772;SDS011;25451;51.960;6.250;2024-02-23T00:43:19;1.73;;;0.60;;
39772;SDS011;25451;51.960;6.250;2024-02-23T00:45:44;3.25;;;0.80;;
39772;SDS011;25451;51.960;6.250;2024-02-23T00:48:09;1.93;;;0.83;;
39772;SDS011;25451;51.960;6.250;2024-02-23T00:50:35;1.95;;;0.75;;
39772;SDS011;25451;51.960;6.250;2024-02-23T00:53:00;1.75;;;0.90;;
39772;SDS011;25451;51.960;6.250;2024-02-23T00:55:26;3.08;;;0.90;;
39772;SDS011;25451;51.960;6.250;2024-02-23T00:57:51;2.90;;;1.00;;
39772;SDS011;25451;51.960;6.250;2024-02-23T01:00:17;4.50;;;1.20;;
39772;SDS011;25451;51.960;6.250;2024-02-23T01:02:42;1.90;;;1.00;;
39772;SDS011;25451;51.960;6.250;2024-02-23T01:05:08;1.83;;;1.23;;
39772;SDS011;25451;51.960;6.250;2024-02-23T01:07:34;2.97;;;1.13;;
39772;SDS011;25451;51.960;6.250;2024-02-23T01:09:59;3.60;;;0.98;;
39772;SDS011;25451;51.960;6.250;2024-02-23T01:12:25;1.87;;;0.90;;
39772;SDS011;25451;51.960;6.250;2024-02-23T01:14:50;2.47;;;1.00;;
39772;SDS011;25451;51.960;6.250;2024-02-23T01:17:15;3.17;;;1.20;;
39772;SDS011;25451;51.960;6.250;2024-02-23T01:19:41;2.70;;;1.20;;
39772;SDS011;25451;51.960;6.250;2024-02-23T01:22:08;4.00;;;1.40;;
39772;SDS011;25451;51.960;6.250;2024-02-23T01:24:33;2.93;;;1.10;;
39772;SDS011;25451;51.960;6.250;2024-02-23T01:26:59;4.57;;;2.10;;
39772;SDS011;25451;51.960;6.250;2024-02-23T01:29:24;3.70;;;1.50;;
39772;SDS011;25451;51.960;6.250;2024-02-23T01:31:51;5.43;;;1.60;;
39772;SDS011;25451;51.960;6.250;2024-02-23T01:34:16;6.00;;;2.10;;
39772;SDS011;25451;51.960;6.250;2024-02-23T01:36:41;3.80;;;1.70;;
39772;SDS011;25451;51.960;6.250;2024-02-23T01:39:07;4.75;;;1.77;;
39772;SDS011;25451;51.960;6.250;2024-02-23T01:41:32;3.95;;;1.90;;
39772;SDS011;25451;51.960;6.250;2024-02-23T01:43:58;5.70;;;1.90;;
39772;SDS011;25451;51.960;6.250;2024-02-23T01:46:23;3.97;;;1.90;;
39772;SDS011;25451;51.960;6.250;2024-02-23T01:48:49;6.50;;;1.70;;
39772;SDS011;25451;51.960;6.250;2024-02-23T01:51:14;3.63;;;1.58;;
39772;SDS011;25451;51.960;6.250;2024-02-23T01:53:40;3.60;;;1.57;;
39772;SDS011;25451;51.960;6.250;2024-02-23T01:56:05;4.00;;;1.57;;
39772;SDS011;25451;51.960;6.250;2024-02-23T01:58:31;6.03;;;1.70;;
39772;SDS011;25451;51.960;6.250;2024-02-23T02:01:00;4.32;;;1.27;;
39772;SDS011;25451;51.960;6.250;2024-02-23T02:03:25;4.27;;;1.23;;
39772;SDS011;25451;51.960;6.250;2024-02-23T02:05:51;8.23;;;1.50;;
39772;SDS011;25451;51.960;6.250;2024-02-23T02:08:18;3.20;;;1.20;;
39772;SDS011;25451;51.960;6.250;2024-02-23T02:10:44;4.47;;;1.10;;
39772;SDS011;25451;51.960;6.250;2024-02-23T02:13:10;3.50;;;1.27;;
39772;SDS011;25451;51.960;6.250;2024-02-23T02:15:35;4.47;;;0.93;;
39772;SDS011;25451;51.960;6.250;2024-02-23T02:18:01;3.53;;;0.85;;
39772;SDS011;25451;51.960;6.250;2024-02-23T02:20:26;1.65;;;0.80;;
39772;SDS011;25451;51.960;6.250;2024-02-23T02:22:53;3.05;;;0.90;;
39772;SDS011;25451;51.960;6.250;2024-02-23T02:25:18;1.93;;;0.80;;
39772;SDS011;25451;51.960;6.250;2024-02-23T02:27:44;1.45;;;0.70;;
39772;SDS011;25451;51.960;6.250;2024-02-23T02:30:11;4.25;;;0.75;;
39772;SDS011;25451;51.960;6.250;2024-02-23T02:32:37;2.43;;;0.70;;
39772;SDS011;25451;51.960;6.250;2024-02-23T02:35:02;2.60;;;0.70;;
39772;SDS011;25451;51.960;6.250;2024-02-23T02:37:27;2.67;;;0.68;;
39772;SDS011;25451;51.960;6.250;2024-02-23T02:39:53;1.40;;;0.53;;
39772;SDS011;25451;51.960;6.250;2024-02-23T02:42:18;2.30;;;0.70;;
39772;SDS011;25451;51.960;6.250;2024-02-23T02:44:43;4.60;;;0.77;;
39772;SDS011;25451;51.960;6.250;2024-02-23T02:47:09;3.27;;;0.67;;
39772;SDS011;25451;51.960;6.250;2024-02-23T02:49:34;3.20;;;0.70;;
39772;SDS011;25451;51.960;6.250;2024-02-23T02:51:59;3.93;;;0.63;;
39772;SDS011;25451;51.960;6.250;2024-02-23T02:54:25;0.97;;;0.50;;
39772;SDS011;25451;51.960;6.250;2024-02-23T02:56:50;4.43;;;0.80;;
39772;SDS011;25451;51.960;6.250;2024-02-23T02:59:19;2.03;;;0.75;;
39772;SDS011;25451;51.960;6.250;2024-02-23T03:01:44;2.87;;;0.77;;
39772;SDS011;25451;51.960;6.250;2024-02-23T03:04:10;5.10;;;1.10;;
39772;SDS011;25451;51.960;6.250;2024-02-23T03:06:35;4.57;;;0.63;;
39772;SDS011;25451;51.960;6.250;2024-02-23T03:09:01;2.63;;;0.83;;
39772;SDS011;25451;51.960;6.250;2024-02-23T03:11:27;2.13;;;0.80;;
39772;SDS011;25451;51.960;6.250;2024-02-23T03:13:52;3.00;;;0.70;;
39772;SDS011;25451;51.960;6.250;2024-02-23T03:16:18;3.13;;;0.83;;
39772;SDS011;25451;51.960;6.250;2024-02-23T03:18:43;3.17;;;0.80;;
39772;SDS011;25451;51.960;6.250;2024-02-23T03:21:10;5.57;;;0.80;;
39772;SDS011;25451;51.960;6.250;2024-02-23T03:23:36;3.47;;;0.82;;
39772;SDS011;25451;51.960;6.250;2024-02-23T03:26:01;2.97;;;0.60;;
39772;SDS011;25451;51.960;6.250;2024-02-23T03:28:27;5.30;;;1.03;;
39772;SDS011;25451;51.960;6.250;2024-02-23T03:30:52;2.65;;;0.70;;
39772;SDS011;25451;51.960;6.250;2024-02-23T03:33:18;2.47;;;0.80;;
39772;SDS011;25451;51.960;6.250;2024-02-23T03:35:43;3.43;;;1.10;;
39772;SDS011;25451;51.960;6.250;2024-02-23T03:38:08;3.20;;;0.77;;
39772;SDS011;25451;51.960;6.250;2024-02-23T03:40:33;1.90;;;0.70;;
39772;SDS011;25451;51.960;6.250;2024-02-23T03:43:00;3.05;;;0.70;;
39772;SDS011;25451;51.960;6.250;2024-02-23T03:45:26;2.97;;;0.80;;
39772;SDS011;25451;51.960;6.250;2024-02-23T03:47:51;3.10;;;0.60;;
39772;SDS011;25451;51.960;6.250;2024-02-23T03:50:16;2.87;;;0.90;;
39772;SDS011;25451;51.960;6.250;2024-02-23T03:52:42;2.33;;;0.60;;
39772;SDS011;25451;51.960;6.250;2024-02-23T03:55:07;3.03;;;0.63;;
39772;SDS011;25451;51.960;6.250;2024-02-23T03:57:33;3.08;;;0.80;;
39772;SDS011;25451;51.960;6.250;2024-02-23T03:59:58;3.57;;;0.77;;
39772;SDS011;25451;51.960;6.250;2024-02-23T04:02:23;2.77;;;0.70;;
39772;SDS011;25451;51.960;6.250;2024-02-23T04:04:49;5.13;;;0.80;;
39772;SDS011;25451;51.960;6.250;2024-02-23T04:07:14;2.47;;;0.70;;
39772;SDS011;25451;51.960;6.250;2024-02-23T04:09:40;3.92;;;0.70;;
39772;SDS011;25451;51.960;6.250;2024-02-23T04:12:05;2.67;;;0.77;;
39772;SDS011;25451;51.960;6.250;2024-02-23T04:14:32;4.78;;;0.70;;
39772;SDS011;25451;51.960;6.250;2024-02-23T04:16:58;1.63;;;0.80;;
39772;SDS011;25451;51.960;6.250;2024-02-23T04:19:24;6.40;;;0.80;;
39772;SDS011;25451;51.960;6.250;2024-02-23T04:21:49;3.83;;;0.75;;
39772;SDS011;25451;51.960;6.250;2024-02-23T04:24:14;3.35;;;0.80;;
39772;SDS011;25451;51.960;6.250;2024-02-23T04:26:40;4.70;;;0.83;;
39772;SDS011;25451;51.960;6.250;2024-02-23T04:29:05;5.27;;;0.90;;
39772;SDS011;25451;51.960;6.250;2024-02-23T04:31:30;3.73;;;0.80;;
39772;SDS011;25451;51.960;6.250;2024-02-23T04:33:55;4.10;;;1.00;;
39772;SDS011;25451;51.960;6.250;2024-02-23T04:36:21;4.17;;;0.80;;
39772;SDS011;25451;51.960;6.250;2024-02-23T04:38:46;5.37;;;1.47;;
39772;SDS011;25451;51.960;6.250;2024-02-23T04:41:11;3.13;;;0.60;;
39772;SDS011;25451;51.960;6.250;2024-02-23T04:43:37;1.87;;;0.73;;
39772;SDS011;25451;51.960;6.250;2024-02-23T04:46:02;3.07;;;0.77;;
39772;SDS011;25451;51.960;6.250;2024-02-23T04:48:27;2.17;;;0.60;;
39772;SDS011;25451;51.960;6.250;2024-02-23T04:50:55;3.03;;;0.85;;
39772;SDS011;25451;51.960;6.250;2024-02-23T04:53:21;3.37;;;0.90;;
39772;SDS011;25451;51.960;6.250;2024-02-23T04:55:46;0.93;;;0.50;;
39772;SDS011;25451;51.960;6.250;2024-02-23T04:58:11;4.37;;;0.80;;
39772;SDS011;25451;51.960;6.250;2024-02-23T05:00:37;3.83;;;0.75;;
39772;SDS011;25451;51.960;6.250;2024-02-23T05:03:02;4.20;;;0.88;;
39772;SDS011;25451;51.960;6.250;2024-02-23T05:05:29;3.05;;;0.90;;
39772;SDS011;25451;51.960;6.250;2024-02-23T05:07:57;3.05;;;0.90;;
39772;SDS011;25451;51.960;6.250;2024-02-23T05:10:23;3.38;;;0.95;;
39772;SDS011;25451;51.960;6.250;2024-02-23T05:12:49;3.63;;;0.80;;
39772;SDS011;25451;51.960;6.250;2024-02-23T05:15:15;4.22;;;1.13;;
39772;SDS011;25451;51.960;6.250;2024-02-23T05:17:40;6.20;;;1.43;;
39772;SDS011;25451;51.960;6.250;2024-02-23T05:20:05;2.57;;;1.00;;
39772;SDS011;25451;51.960;6.250;2024-02-23T05:22:33;2.42;;;1.13;;
39772;SDS011;25451;51.960;6.250;2024-02-23T05:24:58;2.30;;;0.90;;
39772;SDS011;25451;51.960;6.250;2024-02-23T05:27:23;3.80;;;1.20;;
39772;SDS011;25451;51.960;6.250;2024-02-23T05:29:48;3.57;;;1.07;;
39772;SDS011;25451;51.960;6.250;2024-02-23T05:32:14;5.30;;;0.97;;
39772;SDS011;25451;51.960;6.250;2024-02-23T05:34:39;1.50;;;0.80;;
39772;SDS011;25451;51.960;6.250;2024-02-23T05:37:05;7.03;;;0.97;;
39772;SDS011;25451;51.960;6.250;2024-02-23T05:39:30;1.97;;;0.97;;
39772;SDS011;25451;51.960;6.250;2024-02-23T05:41:56;5.45;;;1.00;;
39772;SDS011;25451;51.960;6.250;2024-02-23T05:44:22;6.72;;;1.48;;
39772;SDS011;25451;51.960;6.250;2024-02-23T05:46:47;4.73;;;1.20;;
39772;SDS011;25451;51.960;6.250;2024-02-23T05:49:13;2.90;;;0.90;;
39772;SDS011;25451;51.960;6.250;2024-02-23T05:51:38;4.77;;;1.13;;
39772;SDS011;25451;51.960;6.250;2024-02-23T05:54:03;2.70;;;0.90;;
39772;SDS011;25451;51.960;6.250;2024-02-23T05:56:29;3.72;;;0.88;;
39772;SDS011;25451;51.960;6.250;2024-02-23T05:58:54;2.67;;;0.80;;
39772;SDS011;25451;51.960;6.250;2024-02-23T06:01:20;6.13;;;1.05;;
39772;SDS011;25451;51.960;6.250;2024-02-23T06:03:45;2.60;;;0.90;;
39772;SDS011;25451;51.960;6.250;2024-02-23T06:06:11;3.65;;;0.80;;
39772;SDS011;25451;51.960;6.250;2024-02-23T06:08:36;3.78;;;1.05;;
39772;SDS011;25451;51.960;6.250;2024-02-23T06:11:02;4.03;;;0.87;;
39772;SDS011;25451;51.960;6.250;2024-02-23T06:13:29;6.10;;;0.80;;
39772;SDS011;25451;51.960;6.250;2024-02-23T06:15:54;5.03;;;1.10;;
39772;SDS011;25451;51.960;6.250;2024-02-23T06:18:20;3.93;;;1.33;;
39772;SDS011;25451;51.960;6.250;2024-02-23T06:20:45;4.87;;;0.70;;
39772;SDS011;25451;51.960;6.250;2024-02-23T06:23:10;3.03;;;0.97;;
39772;SDS011;25451;51.960;6.250;2024-02-23T06:25:36;1.90;;;0.70;;
39772;SDS011;25451;51.960;6.250;2024-02-23T06:28:01;5.10;;;0.80;;
39772;SDS011;25451;51.960;6.250;2024-02-23T06:30:26;3.77;;;0.90;;
39772;SDS011;25451;51.960;6.250;2024-02-23T06:32:52;3.90;;;1.00;;
39772;SDS011;25451;51.960;6.250;2024-02-23T06:35:17;4.37;;;0.80;;
39772;SDS011;25451;51.960;6.250;2024-02-23T06:37:43;4.13;;;0.80;;
39772;SDS011;25451;51.960;6.250;2024-02-23T06:40:09;4.57;;;0.83;;
39772;SDS011;25451;51.960;6.250;2024-02-23T06:42:34;5.60;;;0.80;;
39772;SDS011;25451;51.960;6.250;2024-02-23T06:45:00;6.60;;;0.80;;
39772;SDS011;25451;51.960;6.250;2024-02-23T06:47:26;2.77;;;0.70;;
39772;SDS011;25451;51.960;6.250;2024-02-23T06:49:51;2.67;;;0.60;;
39772;SDS011;25451;51.960;6.250;2024-02-23T06:52:16;3.65;;;0.70;;
39772;SDS011;25451;51.960;6.250;2024-02-23T06:54:43;3.90;;;0.65;;
39772;SDS011;25451;51.960;6.250;2024-02-23T06:57:08;3.27;;;0.77;;
39772;SDS011;25451;51.960;6.250;2024-02-23T06:59:33;4.53;;;0.80;;
39772;SDS011;25451;51.960;6.250;2024-02-23T07:01:58;3.77;;;0.90;;
39772;SDS011;25451;51.960;6.250;2024-02-23T07:04:24;2.93;;;0.60;;
39772;SDS011;25451;51.960;6.250;2024-02-23T07:06:50;5.60;;;0.75;;
39772;SDS011;25451;51.960;6.250;2024-02-23T07:09:15;3.58;;;0.77;;
39772;SDS011;25451;51.960;6.250;2024-02-23T07:11:41;4.82;;;0.77;;
39772;SDS011;25451;51.960;6.250;2024-02-23T07:14:08;2.20;;;0.65;;
39772;SDS011;25451;51.960;6.250;2024-02-23T07:16:37;4.32;;;0.70;;
39772;SDS011;25451;51.960;6.250;2024-02-23T07:19:04;3.80;;;0.98;;
39772;SDS011;25451;51.960;6.250;2024-02-23T07:21:29;6.83;;;1.10;;
39772;SDS011;25451;51.960;6.250;2024-02-23T07:23:54;3.03;;;0.77;;
39772;SDS011;25451;51.960;6.250;2024-02-23T07:26:19;5.83;;;0.80;;
39772;SDS011;25451;51.960;6.250;2024-02-23T07:28:47;3.77;;;0.80;;
39772;SDS011;25451;51.960;6.250;2024-02-23T07:31:12;2.97;;;0.70;;
39772;SDS011;25451;51.960;6.250;2024-02-23T07:33:38;4.07;;;0.80;;
39772;SDS011;25451;51.960;6.250;2024-02-23T07:36:03;4.93;;;0.90;;
39772;SDS011;25451;51.960;6.250;2024-02-23T07:38:29;5.18;;;1.05;;
39772;SDS011;25451;51.960;6.250;2024-02-23T07:40:54;3.27;;;0.87;;
39772;SDS011;25451;51.960;6.250;2024-02-23T07:43:20;4.37;;;0.90;;
39772;SDS011;25451;51.960;6.250;2024-02-23T07:45:45;4.30;;;1.35;;
39772;SDS011;25451;51.960;6.250;2024-02-23T07:48:11;2.43;;;1.00;;
39772;SDS011;25451;51.960;6.250;2024-02-23T07:50:36;7.93;;;0.90;;
39772;SDS011;25451;51.960;6.250;2024-02-23T07:53:01;4.10;;;0.90;;
39772;SDS011;25451;51.960;6.250;2024-02-23T07:55:27;3.30;;;0.77;;
39772;SDS011;25451;51.960;6.250;2024-02-23T07:57:52;3.77;;;0.80;;
39772;SDS011;25451;51.960;6.250;2024-02-23T08:00:18;2.93;;;0.80;;
39772;SDS011;25451;51.960;6.250;2024-02-23T08:02:43;5.20;;;1.13;;
39772;SDS011;25451;51.960;6.250;2024-02-23T08:05:08;7.77;;;1.10;;
39772;SDS011;25451;51.960;6.250;2024-02-23T08:07:35;4.43;;;0.90;;
39772;SDS011;25451;51.960;6.250;2024-02-23T08:10:00;4.93;;;0.90;;
39772;SDS011;25451;51.960;6.250;2024-02-23T08:12:26;4.03;;;0.97;;
39772;SDS011;25451;51.960;6.250;2024-02-23T08:14:51;4.30;;;0.85;;
39772;SDS011;25451;51.960;6.250;2024-02-23T08:17:18;6.68;;;1.20;;
39772;SDS011;25451;51.960;6.250;2024-02-23T08:19:43;4.00;;;0.85;;
39772;SDS011;25451;51.960;6.250;2024-02-23T08:22:09;14.27;;;1.20;;
39772;SDS011;25451;51.960;6.250;2024-02-23T08:24:34;3.97;;;0.80;;
39772;SDS011;25451;51.960;6.250;2024-02-23T08:26:59;6.27;;;0.70;;
39772;SDS011;25451;51.960;6.250;2024-02-23T08:29:25;2.37;;;0.60;;
39772;SDS011;25451;51.960;6.250;2024-02-23T08:31:51;2.13;;;0.77;;
39772;SDS011;25451;51.960;6.250;2024-02-23T08:34:16;4.77;;;1.37;;
39772;SDS011;25451;51.960;6.250;2024-02-23T08:36:42;2.42;;;0.60;;
39772;SDS011;25451;51.960;6.250;2024-02-23T08:39:08;4.33;;;0.73;;
39772;SDS011;25451;51.960;6.250;2024-02-23T08:41:33;5.20;;;0.80;;
39772;SDS011;25451;51.960;6.250;2024-02-23T08:43:59;3.60;;;0.90;;
39772;SDS011;25451;51.960;6.250;2024-02-23T08:46:24;2.60;;;0.67;;
39772;SDS011;25451;51.960;6.250;2024-02-23T08:48:50;5.07;;;0.93;;
39772;SDS011;25451;51.960;6.250;2024-02-23T08:51:15;6.43;;;1.30;;
39772;SDS011;25451;51.960;6.250;2024-02-23T08:53:41;3.67;;;0.70;;
39772;SDS011;25451;51.960;6.250;2024-02-23T08:56:06;7.07;;;1.10;;
39772;SDS011;25451;51.960;6.250;2024-02-23T08:58:33;3.60;;;0.80;;
39772;SDS011;25451;51.960;6.250;2024-02-23T09:00:58;5.10;;;0.80;;
39772;SDS011;25451;51.960;6.250;2024-02-23T09:03:24;5.20;;;0.70;;
39772;SDS011;25451;51.960;6.250;2024-02-23T09:05:49;1.77;;;0.60;;
39772;SDS011;25451;51.960;6.250;2024-02-23T09:08:15;4.88;;;0.77;;
39772;SDS011;25451;51.960;6.250;2024-02-23T09:10:40;4.03;;;0.90;;
39772;SDS011;25451;51.960;6.250;2024-02-23T09:13:05;11.47;;;1.60;;
39772;SDS011;25451;51.960;6.250;2024-02-23T09:15:31;6.80;;;1.50;;
39772;SDS011;25451;51.960;6.250;2024-02-23T09:17:56;7.80;;;1.23;;
39772;SDS011;25451;51.960;6.250;2024-02-23T09:20:22;4.43;;;1.10;;
39772;SDS011;25451;51.960;6.250;2024-02-23T09:22:47;5.27;;;0.80;;
39772;SDS011;25451;51.960;6.250;2024-02-23T09:25:12;5.45;;;0.90;;
39772;SDS011;25451;51.960;6.250;2024-02-23T09:27:38;4.95;;;0.73;;
39772;SDS011;25451;51.960;6.250;2024-02-23T09:30:08;2.40;;;0.63;;
39772;SDS011;25451;51.960;6.250;2024-02-23T09:32:35;6.35;;;0.80;;
39772;SDS011;25451;51.960;6.250;2024-02-23T09:35:00;6.40;;;0.90;;
39772;SDS011;25451;51.960;6.250;2024-02-23T09:37:25;8.10;;;0.93;;
39772;SDS011;25451;51.960;6.250;2024-02-23T09:39:51;3.47;;;1.30;;
39772;SDS011;25451;51.960;6.250;2024-02-23T09:42:16;5.63;;;0.80;;
39772;SDS011;25451;51.960;6.250;2024-02-23T09:44:43;7.30;;;1.10;;
39772;SDS011;25451;51.960;6.250;2024-02-23T09:47:10;9.43;;;0.90;;
39772;SDS011;25451;51.960;6.250;2024-02-23T09:49:39;5.05;;;0.75;;
39772;SDS011;25451;51.960;6.250;2024-02-23T09:52:07;4.38;;;0.70;;
39772;SDS011;25451;51.960;6.250;2024-02-23T09:54:34;4.17;;;0.70;;
39772;SDS011;25451;51.960;6.250;2024-02-23T09:57:00;5.35;;;0.90;;
39772;SDS011;25451;51.960;6.250;2024-02-23T09:59:30;4.90;;;0.85;;
39772;SDS011;25451;51.960;6.250;2024-02-23T10:01:56;6.75;;;0.73;;
39772;SDS011;25451;51.960;6.250;2024-02-23T10:04:22;3.10;;;0.60;;
39772;SDS011;25451;51.960;6.250;2024-02-23T10:06:51;2.63;;;0.65;;
39772;SDS011;25451;51.960;6.250;2024-02-23T10:09:16;4.50;;;0.80;;
39772;SDS011;25451;51.960;6.250;2024-02-23T10:11:41;5.00;;;1.20;;
39772;SDS011;25451;51.960;6.250;2024-02-23T10:14:07;5.57;;;0.90;;
39772;SDS011;25451;51.960;6.250;2024-02-23T10:16:33;2.38;;;0.73;;
39772;SDS011;25451;51.960;6.250;2024-02-23T10:18:58;2.53;;;0.50;;
39772;SDS011;25451;51.960;6.250;2024-02-23T10:21:23;5.00;;;0.80;;
39772;SDS011;25451;51.960;6.250;2024-02-23T10:23:50;5.45;;;0.75;;
39772;SDS011;25451;51.960;6.250;2024-02-23T10:26:16;2.38;;;0.70;;
39772;SDS011;25451;51.960;6.250;2024-02-23T10:28:44;3.67;;;0.90;;
39772;SDS011;25451;51.960;6.250;2024-02-23T10:31:11;3.80;;;0.70;;
39772;SDS011;25451;51.960;6.250;2024-02-23T10:33:36;4.38;;;0.73;;
39772;SDS011;25451;51.960;6.250;2024-02-23T10:36:03;5.00;;;0.93;;
39772;SDS011;25451;51.960;6.250;2024-02-23T10:38:32;5.60;;;1.00;;
39772;SDS011;25451;51.960;6.250;2024-02-23T10:40:58;4.85;;;0.88;;
39772;SDS011;25451;51.960;6.250;2024-02-23T10:46:14;4.25;;;1.00;;
39772;SDS011;25451;51.960;6.250;2024-02-23T10:48:43;3.97;;;1.30;;
39772;SDS011;25451;51.960;6.250;2024-02-23T10:51:10;2.90;;;0.60;;
39772;SDS011;25451;51.960;6.250;2024-02-23T10:53:37;2.42;;;0.70;;
39772;SDS011;25451;51.960;6.250;2024-02-23T10:56:04;3.87;;;0.90;;
39772;SDS011;25451;51.960;6.250;2024-02-23T10:58:31;6.45;;;0.85;;
39772;SDS011;25451;51.960;6.250;2024-02-23T11:01:00;6.20;;;0.90;;
39772;SDS011;25451;51.960;6.250;2024-02-23T11:03:28;7.28;;;0.90;;
39772;SDS011;25451;51.960;6.250;2024-02-23T11:05:55;3.33;;;0.60;;
39772;SDS011;25451;51.960;6.250;2024-02-23T11:08:20;1.95;;;0.68;;
39772;SDS011;25451;51.960;6.250;2024-02-23T11:10:49;4.23;;;0.70;;
39772;SDS011;25451;51.960;6.250;2024-02-23T11:13:18;1.67;;;0.70;;
39772;SDS011;25451;51.960;6.250;2024-02-23T11:15:43;3.63;;;0.70;;
39772;SDS011;25451;51.960;6.250;2024-02-23T11:18:21;2.53;;;0.70;;
39772;SDS011;25451;51.960;6.250;2024-02-23T11:20:53;4.68;;;0.90;;
39772;SDS011;25451;51.960;6.250;2024-02-23T11:23:20;4.80;;;0.70;;
39772;SDS011;25451;51.960;6.250;2024-02-23T11:28:31;2.70;;;0.70;;
39772;SDS011;25451;51.960;6.250;2024-02-23T11:30:57;0.85;;;0.60;;
39772;SDS011;25451;51.960;6.250;2024-02-23T11:33:27;3.97;;;0.70;;
39772;SDS011;25451;51.960;6.250;2024-02-23T11:35:53;2.22;;;0.75;;
39772;SDS011;25451;51.960;6.250;2024-02-23T11:38:18;3.30;;;0.70;;
39772;SDS011;25451;51.960;6.250;2024-02-23T11:40:47;2.72;;;0.70;;
39772;SDS011;25451;51.960;6.250;2024-02-23T11:43:13;2.63;;;0.88;;
39772;SDS011;25451;51.960;6.250;2024-02-23T11:45:39;2.47;;;0.70;;
39772;SDS011;25451;51.960;6.250;2024-02-23T11:48:06;2.03;;;0.80;;
39772;SDS011;25451;51.960;6.250;2024-02-23T11:50:32;4.32;;;0.90;;
39772;SDS011;25451;51.960;6.250;2024-02-23T11:52:57;3.50;;;0.80;;
39772;SDS011;25451;51.960;6.250;2024-02-23T11:55:22;5.10;;;0.97;;
39772;SDS011;25451;51.960;6.250;2024-02-23T11:57:48;3.35;;;0.88;;
39772;SDS011;25451;51.960;6.250;2024-02-23T12:00:14;2.33;;;0.80;;
39772;SDS011;25451;51.960;6.250;2024-02-23T12:02:40;2.78;;;0.77;;
39772;SDS011;25451;51.960;6.250;2024-02-23T12:05:05;2.90;;;0.60;;
39772;SDS011;25451;51.960;6.250;2024-02-23T12:07:31;2.42;;;0.60;;
39772;SDS011;25451;51.960;6.250;2024-02-23T12:09:58;3.67;;;0.90;;
39772;SDS011;25451;51.960;6.250;2024-02-23T12:12:25;4.63;;;0.82;;
39772;SDS011;25451;51.960;6.250;2024-02-23T12:14:51;1.92;;;0.77;;
39772;SDS011;25451;51.960;6.250;2024-02-23T12:17:16;2.93;;;0.80;;
39772;SDS011;25451;51.960;6.250;2024-02-23T12:19:41;5.23;;;0.80;;
39772;SDS011;25451;51.960;6.250;2024-02-23T12:22:07;2.97;;;1.40;;
39772;SDS011;25451;51.960;6.250;2024-02-23T12:24:33;3.65;;;0.88;;
39772;SDS011;25451;51.960;6.250;2024-02-23T12:26:59;1.45;;;0.70;;
39772;SDS011;25451;51.960;6.250;2024-02-23T12:29:24;2.33;;;0.70;;
39772;SDS011;25451;51.960;6.250;2024-02-23T12:31:50;3.00;;;0.70;;
39772;SDS011;25451;51.960;6.250;2024-02-23T12:34:16;4.00;;;0.80;;
39772;SDS011;25451;51.960;6.250;2024-02-23T12:36:42;2.30;;;0.90;;
39772;SDS011;25451;51.960;6.250;2024-02-23T12:39:08;1.63;;;0.80;;
39772;SDS011;25451;51.960;6.250;2024-02-23T12:41:33;4.87;;;0.90;;
39772;SDS011;25451;51.960;6.250;2024-02-23T12:43:58;4.93;;;0.80;;
39772;SDS011;25451;51.960;6.250;2024-02-23T12:46:24;3.17;;;0.97;;
39772;SDS011;25451;51.960;6.250;2024-02-23T12:48:49;3.67;;;0.80;;
39772;SDS011;25451;51.960;6.250;2024-02-23T12:51:15;3.13;;;0.90;;
39772;SDS011;25451;51.960;6.250;2024-02-23T12:53:41;4.63;;;0.95;;
39772;SDS011;25451;51.960;6.250;2024-02-23T12:56:08;2.88;;;0.82;;
39772;SDS011;25451;51.960;6.250;2024-02-23T12:58:35;1.45;;;0.75;;
39772;SDS011;25451;51.960;6.250;2024-02-23T13:01:01;5.63;;;1.00;;
39772;SDS011;25451;51.960;6.250;2024-02-23T13:03:27;3.08;;;0.90;;
39772;SDS011;25451;51.960;6.250;2024-02-23T13:05:54;3.43;;;0.77;;
39772;SDS011;25451;51.960;6.250;2024-02-23T13:08:20;5.30;;;0.85;;
39772;SDS011;25451;51.960;6.250;2024-02-23T13:10:46;4.00;;;0.90;;
39772;SDS011;25451;51.960;6.250;2024-02-23T13:13:11;2.37;;;0.80;;
39772;SDS011;25451;51.960;6.250;2024-02-23T13:15:39;2.22;;;0.70;;
39772;SDS011;25451;51.960;6.250;2024-02-23T13:18:05;4.28;;;0.70;;
39772;SDS011;25451;51.960;6.250;2024-02-23T13:20:31;3.13;;;1.07;;
39772;SDS011;25451;51.960;6.250;2024-02-23T13:22:56;2.47;;;0.87;;
39772;SDS011;25451;51.960;6.250;2024-02-23T13:25:21;2.77;;;0.67;;
39772;SDS011;25451;51.960;6.250;2024-02-23T13:27:47;1.67;;;0.70;;
39772;SDS011;25451;51.960;6.250;2024-02-23T13:30:12;3.43;;;0.83;;
39772;SDS011;25451;51.960;6.250;2024-02-23T13:32:38;2.97;;;0.82;;
39772;SDS011;25451;51.960;6.250;2024-02-23T13:35:03;2.30;;;0.80;;
39772;SDS011;25451;51.960;6.250;2024-02-23T13:37:31;2.95;;;0.75;;
39772;SDS011;25451;51.960;6.250;2024-02-23T13:39:57;3.80;;;0.90;;
39772;SDS011;25451;51.960;6.250;2024-02-23T13:42:22;4.83;;;1.20;;
39772;SDS011;25451;51.960;6.250;2024-02-23T13:44:47;4.97;;;0.87;;
39772;SDS011;25451;51.960;6.250;2024-02-23T13:47:13;3.93;;;0.77;;
39772;SDS011;25451;51.960;6.250;2024-02-23T13:49:38;10.53;;;1.00;;
39772;SDS011;25451;51.960;6.250;2024-02-23T13:52:03;2.23;;;0.70;;
39772;SDS011;25451;51.960;6.250;2024-02-23T13:54:29;2.80;;;0.70;;
39772;SDS011;25451;51.960;6.250;2024-02-23T13:56:54;2.53;;;0.80;;
39772;SDS011;25451;51.960;6.250;2024-02-23T13:59:19;1.10;;;0.70;;
39772;SDS011;25451;51.960;6.250;2024-02-23T14:01:44;3.50;;;0.90;;
39772;SDS011;25451;51.960;6.250;2024-02-23T14:04:10;4.05;;;0.70;;
39772;SDS011;25451;51.960;6.250;2024-02-23T14:06:35;2.38;;;0.70;;
39772;SDS011;25451;51.960;6.250;2024-02-23T14:09:01;3.60;;;0.70;;
39772;SDS011;25451;51.960;6.250;2024-02-23T14:11:28;4.07;;;1.10;;
39772;SDS011;25451;51.960;6.250;2024-02-23T14:13:54;3.55;;;0.88;;
39772;SDS011;25451;51.960;6.250;2024-02-23T14:16:19;2.60;;;0.80;;
39772;SDS011;25451;51.960;6.250;2024-02-23T14:18:44;2.53;;;0.70;;
39772;SDS011;25451;51.960;6.250;2024-02-23T14:21:10;4.18;;;0.98;;
39772;SDS011;25451;51.960;6.250;2024-02-23T14:23:36;4.75;;;1.08;;
39772;SDS011;25451;51.960;6.250;2024-02-23T14:26:02;4.72;;;1.08;;
39772;SDS011;25451;51.960;6.250;2024-02-23T14:28:28;6.33;;;1.30;;
39772;SDS011;25451;51.960;6.250;2024-02-23T14:30:53;8.57;;;1.30;;
39772;SDS011;25451;51.960;6.250;2024-02-23T14:33:19;5.75;;;1.20;;
39772;SDS011;25451;51.960;6.250;2024-02-23T14:35:45;7.65;;;1.42;;
39772;SDS011;25451;51.960;6.250;2024-02-23T14:38:10;3.28;;;0.85;;
39772;SDS011;25451;51.960;6.250;2024-02-23T14:40:36;2.80;;;0.70;;
39772;SDS011;25451;51.960;6.250;2024-02-23T14:43:02;3.42;;;0.88;;
39772;SDS011;25451;51.960;6.250;2024-02-23T14:45:28;1.80;;;0.87;;